Palo Alto, CA (94303)

12:39 PM PST on February 01, 2015 (GMT -0800)
Palo Alto (Midtown) | Change Station
CLOSE
Current Station
Personal Weather Station
Location: Palo Alto, CA
Elevation: 15 ft
Nearby Weather Stations

Elev 15 ft 37.44 °N, 122.12 °W | Updated 4 minutes ago

Mostly Cloudy
Mostly Cloudy
63.4 °F
Feels Like 63.4 °F
N
1.0
Wind Variable Wind from NNE
Gusts 3.0 mph

Today
High -- | Low -- °F
--% Chance of Precip.
Yesterday
High -- | Low -- °F
Precip. -- in
7:11 AM 5:32 PM
Waxing Gibbous, 96% visible
Pressure 30.16 in
Visibility 30.0 miles
Clouds Mostly Cloudy 15000 ft
Dew Point 49 °F
Humidity 59%
Rainfall 0.00 in
Snow Depth Not available.
UV 2 out of 12
Pollen 5.30 out of 12
Air Quality Not available.
Flu Activity Not available.
METAR KPAO 011950Z VRB06KT 30SM BKN150 15/09 A3016

More Conditions Fewer Conditions

Pressure 30.16 in
Visibility 30.0 miles
Clouds Mostly Cloudy 15000 ft
Dew Point 49 °F
Humidity 59%
Rainfall 0.00 in
Snow Depth Not available.
UV 2 out of 12
Pollen 5.30 out of 12
Air Quality Not available.
Flu Activity Not available.
METAR KPAO 011950Z VRB06KT 30SM BKN150 15/09 A3016

More Conditions Fewer Conditions

10-Day Weather Forecast

Almanac

Astronomy

Feb. 01, 2015 Rise Set
Actual Time
Civil Twilight
Nautical Twilight
Astronomical Twilight
Moon
Length of Visible Light
Length of Day
Tomorrow will be .
, % of the Moon is Illuminated

Today's Extremes

State Highs State Lows

Community

WunderPhotos

Upload Photos

1,792,511 photos uploaded!

WunderBlogs® & News

Nearby

Air Quality

  Air Quality AQ Index Pollutant
Not available.

Snow Depth

Station Depth Elevation

Earthquake Activity

City Distance Mag. Time & Date
Minimum magnitude displayed is 2.5.

Coastal Water Temperatures

Place Temperature

Nearby Weather Stations